Criglersville, Virginia
Current Conditions -  °F | °C
As of 6:15 AM on Wednesday 26 Nov 2014 (Local Time) from KOMH Reporting Station
Moderate Rain Moderate Rain  
Wind Chill: 39°   Ceiling: 800
Heat Index: 43°   Visibility: 4mi
Dew Point: 43°   Wind: 6mph
Humidity: 100%   Direction: 30°NNE
Pressure: 30.06"   Gusts: NA
Location:  38.4007°N, 78.3336°W
Report Text: KOMH 261115Z AUTO 03005KT 4SM RA SCT003 OVC008 06/06 A3006 RMK AO2 P0004
Loading
Personal Weather Stations






























Interactive Weather Map New forecast layout! Learn more

10-Day Weather Forecast

Advertisements
Track Severe Weather on mobile